createdAt,value
2023-02-18T00:00:16.633Z,1000.03
2023-02-18T00:00:35.585Z,1000.03
2023-02-18T00:01:01.949Z,1000.03
2023-02-18T00:01:33.952Z,1000.03
2023-02-18T00:02:06.026Z,1000.03
2023-02-18T00:02:35.728Z,999.93
2023-02-18T00:02:54.757Z,999.93
2023-02-18T00:03:25.963Z,999.93
2023-02-18T00:03:43.075Z,1000.13
2023-02-18T00:04:14.489Z,1000.13
2023-02-18T00:04:35.570Z,1000.13
2023-02-18T00:05:03.377Z,1000.13
2023-02-18T00:05:33.963Z,1000.13
2023-02-18T00:06:07.021Z,1000.13
2023-02-18T00:06:35.046Z,999.93
2023-02-18T00:06:53.911Z,999.93
2023-02-18T00:07:25.931Z,999.93
2023-02-18T00:07:43.025Z,1000.13
2023-02-18T00:08:14.554Z,1000.13
2023-02-18T00:08:35.529Z,1000.13
2023-02-18T00:09:02.005Z,1000.13
2023-02-18T00:09:34.128Z,1000.13
2023-02-18T00:10:06.284Z,1000.24
2023-02-18T00:10:35.088Z,1000.13
2023-02-18T00:10:54.202Z,1000.13
2023-02-18T00:11:25.936Z,1000.13
2023-02-18T00:11:43.138Z,1000.03
2023-02-18T00:12:14.501Z,1000.03
2023-02-18T00:12:35.527Z,1000.03
2023-02-18T00:13:01.924Z,1000.03
2023-02-18T00:13:33.897Z,1000.03
2023-02-18T00:14:05.922Z,999.93
2023-02-18T00:14:35.040Z,1000.13
2023-02-18T00:14:53.973Z,1000.13
2023-02-18T00:15:26.568Z,1000.13
2023-02-18T00:15:44.305Z,1000.03
2023-02-18T00:16:14.639Z,1000.03
2023-02-18T00:16:35.545Z,999.93
2023-02-18T00:17:01.928Z,999.93
2023-02-18T00:17:33.940Z,999.93
2023-02-18T00:18:05.936Z,1000.03
2023-02-18T00:18:35.048Z,999.83
2023-02-18T00:18:54.586Z,999.83
2023-02-18T00:19:25.916Z,999.83
2023-02-18T00:19:42.995Z,999.93
2023-02-18T00:20:14.940Z,999.93
2023-02-18T00:20:35.560Z,1000.13
2023-02-18T00:21:01.943Z,1000.13
2023-02-18T00:21:34.026Z,1000.13
2023-02-18T00:22:06.888Z,999.93
2023-02-18T00:22:35.033Z,999.93
2023-02-18T00:22:53.918Z,999.93
2023-02-18T00:23:25.931Z,999.93
2023-02-18T00:23:44.039Z,1000.13
2023-02-18T00:24:14.494Z,1000.13
2023-02-18T00:24:35.534Z,1000.03
2023-02-18T00:25:03.459Z,1000.03
2023-02-18T00:25:34.035Z,1000.03
2023-02-18T00:26:06.313Z,1000.03
2023-02-18T00:26:35.382Z,1000.13
2023-02-18T00:26:53.922Z,1000.13
2023-02-18T00:27:25.930Z,1000.13
2023-02-18T00:27:42.995Z,1000.13
2023-02-18T00:28:14.528Z,1000.13
2023-02-18T00:28:35.532Z,1000.03
2023-02-18T00:29:01.916Z,1000.03
2023-02-18T00:29:33.927Z,1000.03
2023-02-18T00:30:08.009Z,1000.03
2023-02-18T00:30:35.117Z,999.83
2023-02-18T00:30:54.317Z,999.83
2023-02-18T00:31:26.120Z,999.83
2023-02-18T00:31:44.385Z,1000.03
2023-02-18T00:32:14.579Z,1000.03
2023-02-18T00:32:35.685Z,1000.13
2023-02-18T00:33:03.141Z,1000.13
2023-02-18T00:33:34.003Z,1000.13
2023-02-18T00:34:05.929Z,999.93
2023-02-18T00:34:35.259Z,1000.03
2023-02-18T00:34:54.643Z,1000.03
2023-02-18T00:35:26.211Z,1000.03
2023-02-18T00:35:42.984Z,1000.13
2023-02-18T00:36:14.513Z,1000.13
2023-02-18T00:36:35.711Z,1000.13
2023-02-18T00:37:01.895Z,1000.13
2023-02-18T00:37:35.451Z,1000.13
2023-02-18T00:38:06.681Z,1000.13
2023-02-18T00:38:35.032Z,1000.03
2023-02-18T00:38:53.928Z,1000.03
2023-02-18T00:39:25.906Z,1000.03
2023-02-18T00:39:42.986Z,1000.13
2023-02-18T00:40:14.876Z,1000.13
2023-02-18T00:40:35.543Z,999.83
2023-02-18T00:41:01.924Z,999.83
2023-02-18T00:41:34.051Z,999.83
2023-02-18T00:42:05.948Z,999.93
2023-02-18T00:42:35.094Z,999.93
2023-02-18T00:42:53.938Z,999.93
2023-02-18T00:43:25.899Z,999.93
2023-02-18T00:43:42.990Z,1000.03
2023-02-18T00:44:14.563Z,1000.03
2023-02-18T00:44:35.520Z,1000.03
2023-02-18T00:45:03.854Z,1000.03
2023-02-18T00:45:34.631Z,1000.03
2023-02-18T00:46:07.937Z,999.63
2023-02-18T00:46:35.092Z,999.93
2023-02-18T00:46:53.973Z,999.93
2023-02-18T00:47:25.941Z,999.93
2023-02-18T00:47:44.206Z,1000.03
2023-02-18T00:48:14.475Z,1000.03
2023-02-18T00:48:35.541Z,1000.03
2023-02-18T00:49:01.938Z,1000.03
2023-02-18T00:49:33.936Z,1000.03
2023-02-18T00:50:06.187Z,1000.03
2023-02-18T00:50:35.017Z,1000.03
2023-02-18T00:50:54.840Z,1000.03
2023-02-18T00:51:25.901Z,1000.03
2023-02-18T00:51:43.007Z,1000.03
2023-02-18T00:52:14.494Z,1000.03
2023-02-18T00:52:35.548Z,999.83
2023-02-18T00:53:01.880Z,999.83
2023-02-18T00:53:34.018Z,999.83
2023-02-18T00:54:06.704Z,1000.03
2023-02-18T00:54:35.045Z,999.93
2023-02-18T00:54:53.953Z,999.93
2023-02-18T00:55:26.182Z,999.93
2023-02-18T00:55:43.025Z,1000.13
2023-02-18T00:56:14.478Z,1000.13
2023-02-18T00:56:35.841Z,999.73
2023-02-18T00:57:01.949Z,999.73
2023-02-18T00:57:34.218Z,999.73
2023-02-18T00:58:05.897Z,999.93
2023-02-18T00:58:35.606Z,999.93
2023-02-18T00:58:53.932Z,999.93
2023-02-18T00:59:25.887Z,999.93
2023-02-18T00:59:43.014Z,1000.03
2023-02-18T01:00:16.724Z,1000.03
2023-02-18T01:00:35.570Z,999.93
2023-02-18T01:01:01.901Z,999.93
2023-02-18T01:01:33.871Z,999.93
2023-02-18T01:02:05.928Z,1000.03
2023-02-18T01:02:35.055Z,1000.03
2023-02-18T01:02:53.937Z,1000.03
2023-02-18T01:03:25.940Z,1000.03
2023-02-18T01:03:44.498Z,1000.13
2023-02-18T01:04:14.487Z,1000.13
2023-02-18T01:04:35.530Z,999.93
2023-02-18T01:05:03.641Z,999.93
2023-02-18T01:05:33.941Z,999.93
2023-02-18T01:06:06.090Z,1000.24
2023-02-18T01:06:35.350Z,999.93
2023-02-18T01:06:54.576Z,999.93
2023-02-18T01:07:25.875Z,999.93
2023-02-18T01:07:43.036Z,999.93
2023-02-18T01:08:14.488Z,999.93
2023-02-18T01:08:35.578Z,999.93
2023-02-18T01:09:01.894Z,999.93
2023-02-18T01:09:33.858Z,999.93
2023-02-18T01:10:06.979Z,999.83
2023-02-18T01:10:35.437Z,1000.03
2023-02-18T01:10:54.187Z,1000.03
2023-02-18T01:11:25.878Z,1000.03
2023-02-18T01:11:42.991Z,1000.03
2023-02-18T01:12:14.512Z,1000.03
2023-02-18T01:12:35.507Z,999.93
2023-02-18T01:13:01.892Z,999.93
2023-02-18T01:13:33.865Z,999.93
2023-02-18T01:14:06.262Z,999.93
2023-02-18T01:14:35.533Z,1000.13
2023-02-18T01:14:53.917Z,1000.13
2023-02-18T01:15:26.451Z,1000.13
2023-02-18T01:15:43.120Z,1000.24
2023-02-18T01:16:14.565Z,1000.24
2023-02-18T01:16:35.499Z,1000.24
2023-02-18T01:17:01.886Z,1000.24
2023-02-18T01:17:33.849Z,1000.24
2023-02-18T01:18:05.911Z,999.93
2023-02-18T01:18:35.039Z,1000.24
2023-02-18T01:18:53.925Z,1000.24
2023-02-18T01:19:25.898Z,1000.24
2023-02-18T01:19:44.111Z,1000.13
2023-02-18T01:20:14.724Z,1000.13
2023-02-18T01:20:35.675Z,1000.44
2023-02-18T01:21:01.929Z,1000.44
2023-02-18T01:21:33.896Z,1000.44
2023-02-18T01:22:05.876Z,1000.13
2023-02-18T01:22:35.054Z,1000.13
2023-02-18T01:22:54.699Z,1000.13
2023-02-18T01:23:25.867Z,1000.13
2023-02-18T01:23:42.996Z,1000.13
2023-02-18T01:24:14.492Z,1000.13
2023-02-18T01:24:35.547Z,1000.24
2023-02-18T01:25:03.533Z,1000.24
2023-02-18T01:25:33.864Z,1000.24
2023-02-18T01:26:07.358Z,1000.13
2023-02-18T01:26:35.048Z,1000.13
2023-02-18T01:26:53.931Z,1000.13
2023-02-18T01:27:25.935Z,1000.13
2023-02-18T01:27:43.030Z,1000.13
2023-02-18T01:28:14.493Z,1000.13
2023-02-18T01:28:35.515Z,1000.13
2023-02-18T01:29:01.883Z,1000.13
2023-02-18T01:29:33.883Z,1000.13
2023-02-18T01:30:08.007Z,1000.13
2023-02-18T01:30:35.152Z,1000.13
2023-02-18T01:30:54.272Z,1000.13
2023-02-18T01:31:25.928Z,1000.13
2023-02-18T01:31:43.134Z,1000.24
2023-02-18T01:32:14.605Z,1000.24
2023-02-18T01:32:35.566Z,1000.03
2023-02-18T01:33:03.165Z,1000.03
2023-02-18T01:33:33.873Z,1000.03
2023-02-18T01:34:05.859Z,999.93
2023-02-18T01:34:35.650Z,1000.13
2023-02-18T01:34:53.896Z,1000.13
2023-02-18T01:35:26.223Z,1000.13
2023-02-18T01:35:44.042Z,1000.24
2023-02-18T01:36:14.466Z,1000.24
2023-02-18T01:36:35.498Z,999.93
2023-02-18T01:37:01.899Z,999.93
2023-02-18T01:37:33.900Z,999.93
2023-02-18T01:38:05.937Z,999.93
2023-02-18T01:38:34.994Z,1000.03
2023-02-18T01:38:54.588Z,1000.03
2023-02-18T01:39:25.864Z,1000.03
2023-02-18T01:39:43.002Z,999.93
2023-02-18T01:40:15.231Z,999.93
2023-02-18T01:40:36.774Z,999.93
2023-02-18T01:41:02.218Z,999.93
2023-02-18T01:41:34.462Z,999.93
2023-02-18T01:42:08.039Z,1000.03
2023-02-18T01:42:36.097Z,999.73
2023-02-18T01:42:53.991Z,999.73
2023-02-18T01:43:28.122Z,999.73
2023-02-18T01:43:43.152Z,999.93
2023-02-18T01:44:15.946Z,999.93
2023-02-18T01:44:35.506Z,999.93
2023-02-18T01:45:02.677Z,999.93
2023-02-18T01:45:34.087Z,999.93
2023-02-18T01:46:08.351Z,999.83
2023-02-18T01:46:35.488Z,999.83
2023-02-18T01:46:54.117Z,999.83
2023-02-18T01:47:25.936Z,999.83
2023-02-18T01:47:43.179Z,999.83
2023-02-18T01:48:14.570Z,999.83
2023-02-18T01:48:36.147Z,999.93
2023-02-18T01:49:02.054Z,999.93
2023-02-18T01:49:34.037Z,999.93
2023-02-18T01:50:06.555Z,999.93
2023-02-18T01:50:35.299Z,999.83
2023-02-18T01:50:54.201Z,999.83
2023-02-18T01:51:26.904Z,999.83
2023-02-18T01:51:44.584Z,999.93
2023-02-18T01:52:14.628Z,999.93
2023-02-18T01:52:35.676Z,999.93
2023-02-18T01:53:01.923Z,999.93
2023-02-18T01:53:33.894Z,999.93
2023-02-18T01:54:05.921Z,999.63
2023-02-18T01:54:35.030Z,999.83
2023-02-18T01:54:53.925Z,999.83
2023-02-18T01:55:26.179Z,999.83
2023-02-18T01:55:43.065Z,999.73
2023-02-18T01:56:14.488Z,999.73
2023-02-18T01:56:36.286Z,999.63
2023-02-18T01:57:01.876Z,999.63
2023-02-18T01:57:33.902Z,999.63
2023-02-18T01:58:06.034Z,999.83
2023-02-18T01:58:35.053Z,999.83
2023-02-18T01:58:53.955Z,999.83
2023-02-18T01:59:25.936Z,999.83
2023-02-18T01:59:44.505Z,999.83
2023-02-18T02:00:16.851Z,999.83
2023-02-18T02:00:35.596Z,1000.03
2023-02-18T02:01:02.259Z,1000.03
2023-02-18T02:01:34.084Z,1000.03
2023-02-18T02:02:05.973Z,999.93
2023-02-18T02:02:35.843Z,999.93
2023-02-18T02:02:54.690Z,999.93
2023-02-18T02:03:25.895Z,999.93
2023-02-18T02:03:42.990Z,999.83
2023-02-18T02:04:14.567Z,999.83
2023-02-18T02:04:35.788Z,999.73
2023-02-18T02:05:03.556Z,999.73
2023-02-18T02:05:34.383Z,999.73
2023-02-18T02:06:07.232Z,999.73
2023-02-18T02:06:35.054Z,999.83
2023-02-18T02:06:53.891Z,999.83
2023-02-18T02:07:25.967Z,999.83
2023-02-18T02:07:43.482Z,999.52
2023-02-18T02:08:14.529Z,999.52
2023-02-18T02:08:35.567Z,999.63
2023-02-18T02:09:02.030Z,999.63
2023-02-18T02:09:33.944Z,999.63
2023-02-18T02:10:06.245Z,999.83
2023-02-18T02:10:35.075Z,999.63
2023-02-18T02:10:54.199Z,999.63
2023-02-18T02:11:25.910Z,999.63
2023-02-18T02:11:43.344Z,999.83
2023-02-18T02:12:14.736Z,999.83
2023-02-18T02:12:35.548Z,999.63
2023-02-18T02:13:01.899Z,999.63
2023-02-18T02:13:34.968Z,999.63
2023-02-18T02:14:05.905Z,999.52
2023-02-18T02:14:35.264Z,999.63
2023-02-18T02:14:53.956Z,999.63
2023-02-18T02:15:26.491Z,999.63
2023-02-18T02:15:44.186Z,999.52
2023-02-18T02:16:14.601Z,999.52
2023-02-18T02:16:35.616Z,999.52
2023-02-18T02:17:01.907Z,999.52
2023-02-18T02:17:33.896Z,999.52
2023-02-18T02:18:05.942Z,999.52
2023-02-18T02:18:35.061Z,999.63
2023-02-18T02:18:54.605Z,999.63
2023-02-18T02:19:25.914Z,999.63
2023-02-18T02:19:42.994Z,999.42
2023-02-18T02:20:14.871Z,999.42
2023-02-18T02:20:36.020Z,999.73
2023-02-18T02:21:01.912Z,999.73
2023-02-18T02:21:34.342Z,999.73
2023-02-18T02:22:06.623Z,999.42
2023-02-18T02:22:35.048Z,999.42
2023-02-18T02:22:53.922Z,999.42
2023-02-18T02:23:25.928Z,999.42
2023-02-18T02:23:43.012Z,999.52
2023-02-18T02:24:14.540Z,999.52
2023-02-18T02:24:35.558Z,999.63
2023-02-18T02:25:03.503Z,999.63
2023-02-18T02:25:34.253Z,999.63
2023-02-18T02:26:06.265Z,999.52
2023-02-18T02:26:35.166Z,999.52
2023-02-18T02:26:53.907Z,999.52
2023-02-18T02:27:25.904Z,999.52
2023-02-18T02:27:42.977Z,999.52
2023-02-18T02:28:14.503Z,999.52
2023-02-18T02:28:35.958Z,999.83
2023-02-18T02:29:01.899Z,999.83
2023-02-18T02:29:34.166Z,999.83
2023-02-18T02:30:07.953Z,999.73
2023-02-18T02:30:35.181Z,999.52
2023-02-18T02:30:54.377Z,999.52
2023-02-18T02:31:26.024Z,999.52
2023-02-18T02:31:43.665Z,999.63
2023-02-18T02:32:14.491Z,999.63
2023-02-18T02:32:35.548Z,999.73
2023-02-18T02:33:03.240Z,999.73
2023-02-18T02:33:33.906Z,999.73
2023-02-18T02:34:05.924Z,999.52
2023-02-18T02:34:35.030Z,999.42
2023-02-18T02:34:54.704Z,999.42
2023-02-18T02:35:26.194Z,999.42
2023-02-18T02:35:43.145Z,999.63
2023-02-18T02:36:14.468Z,999.63
2023-02-18T02:36:35.498Z,999.52
2023-02-18T02:37:02.161Z,999.52
2023-02-18T02:37:33.829Z,999.52
2023-02-18T02:38:06.749Z,999.42
2023-02-18T02:38:35.416Z,999.42
2023-02-18T02:38:53.845Z,999.42
2023-02-18T02:39:25.864Z,999.42
2023-02-18T02:39:42.977Z,999.22
2023-02-18T02:40:14.724Z,999.22
2023-02-18T02:40:35.827Z,999.52
2023-02-18T02:41:01.828Z,999.52
2023-02-18T02:41:33.849Z,999.52
2023-02-18T02:42:05.859Z,999.52
2023-02-18T02:42:35.410Z,999.32
2023-02-18T02:42:53.862Z,999.32
2023-02-18T02:43:25.820Z,999.32
2023-02-18T02:43:42.973Z,999.63
2023-02-18T02:44:14.429Z,999.63
2023-02-18T02:44:35.514Z,999.52
2023-02-18T02:45:03.627Z,999.52
2023-02-18T02:45:33.890Z,999.52
2023-02-18T02:46:07.797Z,999.32
2023-02-18T02:46:35.388Z,999.32
2023-02-18T02:46:53.886Z,999.32
2023-02-18T02:47:26.159Z,999.32
2023-02-18T02:47:44.386Z,999.52
2023-02-18T02:48:14.385Z,999.52
2023-02-18T02:48:35.542Z,999.63
2023-02-18T02:49:01.855Z,999.63
2023-02-18T02:49:34.387Z,999.63
2023-02-18T02:50:06.152Z,999.42
2023-02-18T02:50:35.306Z,999.42
2023-02-18T02:50:55.098Z,999.42
2023-02-18T02:51:25.842Z,999.42
2023-02-18T02:51:42.959Z,999.32
2023-02-18T02:52:14.412Z,999.32
2023-02-18T02:52:35.521Z,999.42
2023-02-18T02:53:01.843Z,999.42
2023-02-18T02:53:33.805Z,999.42
2023-02-18T02:54:07.380Z,999.32
2023-02-18T02:54:35.012Z,999.32
2023-02-18T02:54:53.947Z,999.32
2023-02-18T02:55:26.149Z,999.32
2023-02-18T02:55:42.990Z,999.42
2023-02-18T02:56:14.427Z,999.42
2023-02-18T02:56:35.527Z,999.42
2023-02-18T02:57:01.907Z,999.42
2023-02-18T02:57:33.841Z,999.42
2023-02-18T02:58:05.812Z,999.12
2023-02-18T02:58:34.976Z,999.32
2023-02-18T02:58:53.850Z,999.32
2023-02-18T02:59:25.888Z,999.32
2023-02-18T02:59:42.952Z,999.32
2023-02-18T03:00:16.422Z,999.32
2023-02-18T03:00:35.532Z,999.32
2023-02-18T03:01:01.977Z,999.32
2023-02-18T03:01:33.805Z,999.32
2023-02-18T03:02:05.807Z,999.52
2023-02-18T03:02:34.971Z,999.12
2023-02-18T03:02:53.896Z,999.12
2023-02-18T03:03:25.979Z,999.12
2023-02-18T03:03:44.260Z,999.32
2023-02-18T03:04:14.484Z,999.32
2023-02-18T03:04:35.494Z,999.02
2023-02-18T03:05:03.582Z,999.02
2023-02-18T03:05:33.833Z,999.02
2023-02-18T03:06:06.064Z,998.92
2023-02-18T03:06:34.999Z,999.02
2023-02-18T03:06:54.509Z,999.02
2023-02-18T03:07:25.850Z,999.02
2023-02-18T03:07:42.942Z,999.02
2023-02-18T03:08:14.749Z,999.02
2023-02-18T03:08:35.526Z,999.02
2023-02-18T03:09:01.819Z,999.02
2023-02-18T03:09:33.929Z,999.02
2023-02-18T03:10:06.922Z,999.12
2023-02-18T03:10:35.845Z,999.12
2023-02-18T03:10:54.111Z,999.12
2023-02-18T03:11:25.886Z,999.12
2023-02-18T03:11:42.990Z,999.32
2023-02-18T03:12:14.523Z,999.32
2023-02-18T03:12:35.519Z,999.12
2023-02-18T03:13:01.843Z,999.12
2023-02-18T03:13:33.829Z,999.12
2023-02-18T03:14:05.870Z,999.22
2023-02-18T03:14:35.010Z,999.22
2023-02-18T03:14:53.884Z,999.22
2023-02-18T03:15:26.383Z,999.22
2023-02-18T03:15:42.994Z,999.22
2023-02-18T03:16:14.594Z,999.22
2023-02-18T03:16:35.739Z,999.12
2023-02-18T03:17:01.825Z,999.12
2023-02-18T03:17:34.054Z,999.12
2023-02-18T03:18:05.817Z,999.22
2023-02-18T03:18:35.797Z,999.12
2023-02-18T03:18:53.882Z,999.12
2023-02-18T03:19:25.807Z,999.12
2023-02-18T03:19:46.330Z,999.12
2023-02-18T03:20:14.789Z,999.12
2023-02-18T03:20:35.506Z,999.22
2023-02-18T03:21:01.869Z,999.22
2023-02-18T03:21:33.827Z,999.22
2023-02-18T03:22:05.853Z,999.02
2023-02-18T03:22:34.991Z,999.22
2023-02-18T03:22:54.625Z,999.22
2023-02-18T03:23:25.816Z,999.22
2023-02-18T03:23:42.951Z,999.12
2023-02-18T03:24:14.464Z,999.12
2023-02-18T03:24:35.616Z,998.92
2023-02-18T03:25:03.360Z,998.92
2023-02-18T03:25:33.826Z,998.92
2023-02-18T03:26:15.420Z,999.02
2023-02-18T03:26:35.087Z,999.22
2023-02-18T03:26:53.889Z,999.22
2023-02-18T03:27:25.886Z,999.22
2023-02-18T03:27:42.986Z,999.32
2023-02-18T03:28:14.360Z,999.32
2023-02-18T03:28:35.507Z,999.22
2023-02-18T03:29:01.876Z,999.22
2023-02-18T03:29:33.834Z,999.22
2023-02-18T03:30:07.674Z,999.22
2023-02-18T03:30:35.305Z,999.32
2023-02-18T03:30:54.142Z,999.32
2023-02-18T03:31:25.995Z,999.32
2023-02-18T03:31:43.138Z,999.22
2023-02-18T03:32:14.507Z,999.22
2023-02-18T03:32:35.526Z,999.32
2023-02-18T03:33:03.170Z,999.32
2023-02-18T03:33:33.804Z,999.32
2023-02-18T03:34:05.800Z,999.32
2023-02-18T03:34:35.612Z,999.22
2023-02-18T03:34:53.875Z,999.22
2023-02-18T03:35:26.127Z,999.22
2023-02-18T03:35:44.922Z,999.42
2023-02-18T03:36:14.406Z,999.42
2023-02-18T03:36:35.617Z,999.12
2023-02-18T03:37:01.915Z,999.12
2023-02-18T03:37:34.281Z,999.12
2023-02-18T03:38:05.891Z,999.22
2023-02-18T03:38:34.965Z,999.32
2023-02-18T03:38:54.524Z,999.32
2023-02-18T03:39:25.831Z,999.32
2023-02-18T03:39:42.970Z,998.92
2023-02-18T03:40:14.730Z,998.92
2023-02-18T03:40:35.534Z,999.22
2023-02-18T03:41:01.904Z,999.22
2023-02-18T03:41:33.820Z,999.22
2023-02-18T03:42:06.654Z,999.22
2023-02-18T03:42:35.435Z,999.12
2023-02-18T03:42:53.851Z,999.12
2023-02-18T03:43:25.835Z,999.12
2023-02-18T03:43:42.991Z,999.12
2023-02-18T03:44:14.361Z,999.12
2023-02-18T03:44:35.560Z,999.02
2023-02-18T03:45:03.580Z,999.02
2023-02-18T03:45:33.931Z,999.02
2023-02-18T03:46:08.001Z,999.12
2023-02-18T03:46:35.005Z,999.12
2023-02-18T03:46:53.887Z,999.12
2023-02-18T03:47:25.829Z,999.12
2023-02-18T03:47:42.968Z,999.02
2023-02-18T03:48:14.456Z,999.02
2023-02-18T03:48:35.493Z,999.02
2023-02-18T03:49:01.830Z,999.02
2023-02-18T03:49:34.120Z,999.02
2023-02-18T03:50:06.103Z,999.22
2023-02-18T03:50:34.998Z,999.32
2023-02-18T03:50:54.173Z,999.32
2023-02-18T03:51:25.845Z,999.32
2023-02-18T03:51:43.685Z,999.02
2023-02-18T03:52:14.412Z,999.02
2023-02-18T03:52:35.797Z,999.02
2023-02-18T03:53:01.856Z,999.02
2023-02-18T03:53:33.819Z,999.02
2023-02-18T03:54:05.863Z,999.02
2023-02-18T03:54:35.534Z,999.02
2023-02-18T03:54:53.860Z,999.02
2023-02-18T03:55:26.081Z,999.02
2023-02-18T03:55:42.926Z,999.22
2023-02-18T03:56:14.428Z,999.22
2023-02-18T03:56:36.313Z,999.12
2023-02-18T03:57:01.817Z,999.12
2023-02-18T03:57:34.315Z,999.12
2023-02-18T03:58:05.840Z,999.02
2023-02-18T03:58:35.065Z,998.92
2023-02-18T03:58:53.909Z,998.92
2023-02-18T03:59:25.851Z,998.92
2023-02-18T03:59:43.706Z,999.02
2023-02-18T04:00:16.434Z,999.02
2023-02-18T04:00:35.634Z,999.22
2023-02-18T04:01:01.898Z,999.22
2023-02-18T04:01:33.961Z,999.22
2023-02-18T04:02:05.831Z,999.22
2023-02-18T04:02:35.006Z,999.22
2023-02-18T04:02:54.627Z,999.22
2023-02-18T04:03:25.832Z,999.22
2023-02-18T04:03:43.483Z,999.02
2023-02-18T04:04:14.338Z,999.02
2023-02-18T04:04:35.552Z,999.12
2023-02-18T04:05:03.281Z,999.12
2023-02-18T04:05:33.802Z,999.12
2023-02-18T04:06:06.976Z,999.32
2023-02-18T04:06:35.227Z,999.32
2023-02-18T04:06:53.893Z,999.32
2023-02-18T04:07:25.841Z,999.32
2023-02-18T04:07:42.946Z,999.12
2023-02-18T04:08:14.395Z,999.12
2023-02-18T04:08:35.495Z,999.02
2023-02-18T04:09:01.882Z,999.02
2023-02-18T04:09:33.800Z,999.02
2023-02-18T04:10:06.176Z,999.22
2023-02-18T04:10:35.007Z,999.02
2023-02-18T04:10:54.264Z,999.02
2023-02-18T04:11:25.846Z,999.02
2023-02-18T04:11:42.977Z,999.22
2023-02-18T04:12:14.438Z,999.22
2023-02-18T04:12:35.535Z,999.12
2023-02-18T04:13:01.820Z,999.12
2023-02-18T04:13:33.808Z,999.12
2023-02-18T04:14:05.847Z,999.02
2023-02-18T04:14:35.305Z,999.22
2023-02-18T04:14:53.871Z,999.22
2023-02-18T04:15:26.365Z,999.22
2023-02-18T04:15:43.490Z,999.32
2023-02-18T04:16:14.405Z,999.32
2023-02-18T04:16:35.692Z,999.32
2023-02-18T04:17:01.826Z,999.32
2023-02-18T04:17:33.853Z,999.32
2023-02-18T04:18:05.854Z,999.42
2023-02-18T04:18:35.482Z,999.22
2023-02-18T04:18:53.844Z,999.22
2023-02-18T04:19:25.831Z,999.22
2023-02-18T04:19:42.971Z,999.12
2023-02-18T04:20:14.739Z,999.12
2023-02-18T04:20:35.514Z,999.22
2023-02-18T04:21:01.848Z,999.22
2023-02-18T04:21:33.805Z,999.22
2023-02-18T04:22:06.763Z,999.12
2023-02-18T04:22:35.032Z,999.32
2023-02-18T04:22:53.935Z,999.32
2023-02-18T04:23:25.821Z,999.32
2023-02-18T04:23:42.971Z,999.42
2023-02-18T04:24:14.413Z,999.42
2023-02-18T04:24:35.533Z,999.42
2023-02-18T04:25:03.337Z,999.42
2023-02-18T04:25:33.824Z,999.42
2023-02-18T04:26:05.935Z,999.22
2023-02-18T04:26:35.401Z,999.12
2023-02-18T04:26:53.862Z,999.12
2023-02-18T04:27:25.849Z,999.12
2023-02-18T04:27:42.966Z,999.22
2023-02-18T04:28:14.424Z,999.22
2023-02-18T04:28:35.509Z,999.12
2023-02-18T04:29:01.885Z,999.12
2023-02-18T04:29:33.782Z,999.12
2023-02-18T04:30:07.906Z,999.22
2023-02-18T04:30:35.499Z,999.02
2023-02-18T04:30:54.285Z,999.02
2023-02-18T04:31:25.967Z,999.02
2023-02-18T04:31:43.667Z,999.12
2023-02-18T04:32:14.370Z,999.12
2023-02-18T04:32:35.493Z,999.12
2023-02-18T04:33:03.120Z,999.12
2023-02-18T04:33:33.842Z,999.12
2023-02-18T04:34:05.857Z,999.02
2023-02-18T04:34:35.095Z,999.12
2023-02-18T04:34:53.830Z,999.12
2023-02-18T04:35:26.096Z,999.12
2023-02-18T04:35:42.974Z,999.12
2023-02-18T04:36:14.371Z,999.12
2023-02-18T04:36:35.498Z,999.02
2023-02-18T04:37:01.829Z,999.02
2023-02-18T04:37:33.801Z,999.02
2023-02-18T04:38:06.686Z,999.02
2023-02-18T04:38:35.406Z,999.22
2023-02-18T04:38:53.893Z,999.22
2023-02-18T04:39:25.858Z,999.22
2023-02-18T04:39:43.045Z,999.12
2023-02-18T04:40:14.676Z,999.12
2023-02-18T04:40:35.492Z,999.22
2023-02-18T04:41:01.900Z,999.22
2023-02-18T04:41:34.231Z,999.22
2023-02-18T04:42:05.850Z,999.12
2023-02-18T04:42:35.012Z,999.12
2023-02-18T04:42:53.856Z,999.12
2023-02-18T04:43:25.784Z,999.12
2023-02-18T04:43:43.000Z,999.12
2023-02-18T04:44:14.412Z,999.12
2023-02-18T04:44:35.514Z,999.12
2023-02-18T04:45:03.604Z,999.12
2023-02-18T04:45:33.805Z,999.12
2023-02-18T04:46:07.512Z,999.02
2023-02-18T04:46:35.107Z,999.12
2023-02-18T04:46:53.870Z,999.12
2023-02-18T04:47:25.863Z,999.12
2023-02-18T04:47:43.565Z,999.12
2023-02-18T04:48:14.425Z,999.12
2023-02-18T04:48:35.486Z,999.22
2023-02-18T04:49:01.818Z,999.22
2023-02-18T04:49:33.840Z,999.22
2023-02-18T04:50:06.175Z,999.02
2023-02-18T04:50:35.411Z,999.22
2023-02-18T04:50:54.106Z,999.22
2023-02-18T04:51:25.849Z,999.22
2023-02-18T04:51:42.994Z,999.32
2023-02-18T04:52:14.393Z,999.32
2023-02-18T04:52:35.512Z,999.22
2023-02-18T04:53:01.821Z,999.22
2023-02-18T04:53:33.791Z,999.22
2023-02-18T04:54:05.868Z,999.22
2023-02-18T04:54:35.039Z,999.12
2023-02-18T04:54:53.943Z,999.12
2023-02-18T04:55:26.110Z,999.12
2023-02-18T04:55:42.989Z,999.22
2023-02-18T04:56:14.379Z,999.22
2023-02-18T04:56:36.344Z,999.02
2023-02-18T04:57:01.855Z,999.02
2023-02-18T04:57:33.808Z,999.02
2023-02-18T04:58:05.844Z,999.12
2023-02-18T04:58:35.034Z,999.12
2023-02-18T04:58:53.854Z,999.12
2023-02-18T04:59:25.794Z,999.12
2023-02-18T04:59:45.154Z,999.32
2023-02-18T05:00:16.310Z,999.32
2023-02-18T05:00:35.859Z,999.12
2023-02-18T05:01:01.930Z,999.12
2023-02-18T05:01:33.834Z,999.12
2023-02-18T05:02:05.433Z,999.22
2023-02-18T05:02:34.459Z,999.12
2023-02-18T05:02:54.239Z,999.12
2023-02-18T05:03:25.469Z,999.12
2023-02-18T05:03:42.476Z,999.32
2023-02-18T05:04:13.472Z,999.32
2023-02-18T05:04:35.088Z,999.22
2023-02-18T05:05:01.825Z,999.22
2023-02-18T05:05:33.479Z,999.22
2023-02-18T05:06:09.532Z,999.32
2023-02-18T05:06:35.015Z,999.32
2023-02-18T05:06:54.000Z,999.32
2023-02-18T05:07:25.926Z,999.32
2023-02-18T05:07:42.917Z,999.42
2023-02-18T05:08:13.848Z,999.42
2023-02-18T05:08:35.522Z,999.32
2023-02-18T05:09:01.813Z,999.32
2023-02-18T05:09:34.229Z,999.32
2023-02-18T05:10:06.124Z,999.32
2023-02-18T05:10:35.057Z,999.22
2023-02-18T05:10:54.106Z,999.22
2023-02-18T05:11:25.851Z,999.22
2023-02-18T05:11:42.988Z,999.22
2023-02-18T05:12:13.837Z,999.22
2023-02-18T05:12:35.820Z,999.32
2023-02-18T05:13:01.831Z,999.32
2023-02-18T05:13:33.862Z,999.32
2023-02-18T05:14:05.897Z,999.42
2023-02-18T05:14:34.991Z,999.32
2023-02-18T05:14:53.831Z,999.32
2023-02-18T05:15:26.846Z,999.32
2023-02-18T05:15:44.545Z,999.22
2023-02-18T05:16:14.125Z,999.22
2023-02-18T05:16:35.538Z,999.12
2023-02-18T05:17:01.819Z,999.12
2023-02-18T05:17:34.127Z,999.12
2023-02-18T05:18:05.877Z,999.22
2023-02-18T05:18:34.984Z,999.02
2023-02-18T05:18:54.603Z,999.02
2023-02-18T05:19:25.868Z,999.02
2023-02-18T05:19:42.981Z,999.22
2023-02-18T05:20:14.131Z,999.22
2023-02-18T05:20:35.516Z,998.92
2023-02-18T05:21:01.825Z,998.92
2023-02-18T05:21:33.929Z,998.92
2023-02-18T05:22:06.643Z,999.32
2023-02-18T05:22:36.244Z,999.12
2023-02-18T05:22:54.109Z,999.12
2023-02-18T05:23:25.802Z,999.12
2023-02-18T05:23:42.935Z,999.12
2023-02-18T05:24:13.877Z,999.12
2023-02-18T05:24:35.522Z,999.22
2023-02-18T05:25:03.469Z,999.22
2023-02-18T05:25:39.474Z,999.22
2023-02-18T05:26:05.840Z,999.22
2023-02-18T05:26:35.506Z,999.12
2023-02-18T05:26:53.869Z,999.12
2023-02-18T05:27:25.793Z,999.12
2023-02-18T05:27:42.944Z,999.02
2023-02-18T05:28:13.866Z,999.02
2023-02-18T05:28:35.530Z,999.22
2023-02-18T05:29:01.847Z,999.22
2023-02-18T05:29:33.861Z,999.22
2023-02-18T05:30:07.885Z,998.92
2023-02-18T05:30:35.011Z,998.92